createdAt,value
2019-03-21T00:02:14.493Z,5.20
2019-03-21T00:04:43.408Z,5.33
2019-03-21T00:07:11.616Z,4.47
2019-03-21T00:09:41.397Z,4.93
2019-03-21T00:12:10.385Z,4.87
2019-03-21T00:14:43.296Z,4.20
2019-03-21T00:17:13.036Z,4.73
2019-03-21T00:19:41.276Z,4.33
2019-03-21T00:22:09.488Z,4.67
2019-03-21T00:24:37.729Z,5.20
2019-03-21T00:27:05.937Z,5.17
2019-03-21T00:29:34.177Z,4.43
2019-03-21T00:32:02.389Z,4.37
2019-03-21T00:34:30.625Z,4.70
2019-03-21T00:36:58.836Z,4.57
2019-03-21T00:39:32.611Z,4.37
2019-03-21T00:41:56.941Z,5.00
2019-03-21T00:44:25.150Z,4.73
2019-03-21T00:46:53.391Z,4.60
2019-03-21T00:49:21.600Z,4.50
2019-03-21T00:51:49.843Z,4.13
2019-03-21T00:54:18.053Z,4.47
2019-03-21T00:56:46.296Z,4.63
2019-03-21T00:59:14.508Z,4.80
2019-03-21T01:01:42.747Z,5.17
2019-03-21T01:04:10.964Z,4.80
2019-03-21T01:06:39.204Z,4.60
2019-03-21T01:09:08.993Z,4.60
2019-03-21T01:11:37.305Z,4.33
2019-03-21T01:14:05.590Z,4.70
2019-03-21T01:16:33.833Z,4.27
2019-03-21T01:19:02.048Z,4.17
2019-03-21T01:21:30.293Z,4.67
2019-03-21T01:23:58.500Z,4.20
2019-03-21T01:26:26.745Z,4.50
2019-03-21T01:28:54.957Z,4.53
2019-03-21T01:31:23.206Z,4.93
2019-03-21T01:33:51.419Z,5.00
2019-03-21T01:36:20.631Z,4.73
2019-03-21T01:38:48.845Z,4.47
2019-03-21T01:41:18.626Z,4.77
2019-03-21T01:43:46.835Z,5.00
2019-03-21T01:46:16.612Z,4.97
2019-03-21T01:48:45.202Z,4.07
2019-03-21T01:51:13.448Z,4.23
2019-03-21T01:53:41.664Z,5.17
2019-03-21T01:56:09.919Z,4.90
2019-03-21T01:58:38.132Z,5.33
2019-03-21T02:01:08.717Z,4.60
2019-03-21T02:03:36.312Z,4.50
2019-03-21T02:06:04.517Z,5.37
2019-03-21T02:08:32.774Z,4.77
2019-03-21T02:11:00.989Z,4.83
2019-03-21T02:13:29.225Z,4.90
2019-03-21T02:15:59.286Z,5.60
2019-03-21T02:18:27.327Z,5.30
2019-03-21T02:20:55.536Z,5.40
2019-03-21T02:23:24.143Z,5.13
2019-03-21T02:25:52.371Z,5.43
2019-03-21T02:28:20.613Z,4.40
2019-03-21T02:30:49.702Z,5.40
2019-03-21T02:33:19.489Z,4.90
2019-03-21T02:35:47.702Z,5.10
2019-03-21T02:38:15.944Z,5.07
2019-03-21T02:40:44.450Z,4.93
2019-03-21T02:43:12.676Z,5.10
2019-03-21T02:45:40.894Z,4.90
2019-03-21T02:48:09.145Z,5.00
2019-03-21T02:50:38.324Z,4.73
2019-03-21T02:53:07.052Z,4.77
2019-03-21T02:55:35.337Z,5.07
2019-03-21T02:58:03.950Z,5.00
2019-03-21T03:00:36.378Z,4.67
2019-03-21T03:03:05.401Z,4.60
2019-03-21T03:05:52.958Z,4.60
2019-03-21T03:08:21.286Z,4.53
2019-03-21T03:10:56.546Z,5.00
2019-03-21T03:13:24.862Z,4.57
2019-03-21T03:15:53.081Z,4.67
2019-03-21T03:18:21.801Z,4.93
2019-03-21T03:20:50.027Z,4.83
2019-03-21T03:23:18.271Z,4.60
2019-03-21T03:25:46.563Z,5.43
2019-03-21T03:28:16.369Z,5.63
2019-03-21T03:30:44.646Z,5.00
2019-03-21T03:33:12.923Z,4.90
2019-03-21T03:35:41.193Z,4.80
2019-03-21T03:38:09.411Z,4.60
2019-03-21T03:40:45.173Z,5.30
2019-03-21T03:43:13.781Z,5.07
2019-03-21T03:45:42.393Z,5.03
2019-03-21T03:48:10.776Z,4.60
2019-03-21T03:50:39.024Z,5.10
2019-03-21T03:53:07.317Z,4.73
2019-03-21T03:55:35.638Z,5.37
2019-03-21T03:58:23.623Z,5.50
2019-03-21T04:00:51.911Z,4.90
2019-03-21T04:03:20.226Z,5.27
2019-03-21T04:05:48.537Z,4.83
2019-03-21T04:08:16.852Z,4.67
2019-03-21T04:10:48.952Z,4.90
2019-03-21T04:13:17.197Z,5.07
2019-03-21T04:15:52.329Z,5.77
2019-03-21T04:18:16.412Z,5.03
2019-03-21T04:20:45.646Z,5.10
2019-03-21T04:23:14.864Z,5.07
2019-03-21T04:25:44.693Z,5.50
2019-03-21T04:28:14.487Z,6.23
2019-03-21T04:30:43.010Z,5.57
2019-03-21T04:33:11.424Z,5.57
2019-03-21T04:35:40.024Z,5.47
2019-03-21T04:38:08.298Z,5.37
2019-03-21T04:40:36.508Z,7.00
2019-03-21T04:43:04.761Z,5.50
2019-03-21T04:45:32.977Z,5.10
2019-03-21T04:48:01.226Z,5.23
2019-03-21T04:50:30.445Z,5.10
2019-03-21T04:52:58.729Z,6.53
2019-03-21T04:55:28.206Z,4.53
2019-03-21T04:57:56.461Z,5.90
2019-03-21T05:00:37.884Z,5.37
2019-03-21T05:03:07.601Z,4.97
2019-03-21T05:05:35.825Z,5.40
2019-03-21T05:08:04.137Z,5.37
2019-03-21T05:10:32.361Z,5.13
2019-03-21T05:13:00.580Z,5.70
2019-03-21T05:15:30.300Z,5.63
2019-03-21T05:18:03.197Z,5.53
2019-03-21T05:20:31.445Z,6.20
2019-03-21T05:22:59.665Z,6.73
2019-03-21T05:25:27.916Z,6.70
2019-03-21T05:27:56.141Z,6.80
2019-03-21T05:30:25.926Z,6.07
2019-03-21T05:32:54.169Z,6.20
2019-03-21T05:35:22.445Z,6.03
2019-03-21T05:37:50.695Z,5.40
2019-03-21T05:40:20.016Z,5.40
2019-03-21T05:42:49.772Z,5.53
2019-03-21T05:45:19.284Z,5.57
2019-03-21T05:47:47.505Z,5.73
2019-03-21T05:50:16.957Z,5.70
2019-03-21T05:52:45.276Z,5.67
2019-03-21T05:55:13.525Z,5.90
2019-03-21T05:57:42.844Z,6.47
2019-03-21T06:00:15.393Z,5.83
2019-03-21T06:02:43.639Z,5.40
2019-03-21T06:05:11.849Z,6.13
2019-03-21T06:07:41.657Z,6.47
2019-03-21T06:10:15.681Z,6.90
2019-03-21T06:12:44.128Z,6.10
2019-03-21T06:15:14.112Z,6.40
2019-03-21T06:17:42.897Z,6.33
2019-03-21T06:20:15.497Z,6.77
2019-03-21T06:22:45.264Z,6.77
2019-03-21T06:25:17.873Z,6.53
2019-03-21T06:27:46.123Z,6.37
2019-03-21T06:30:14.365Z,7.37
2019-03-21T06:32:42.577Z,6.40
2019-03-21T06:35:20.628Z,6.47
2019-03-21T06:37:48.909Z,6.80
2019-03-21T06:40:17.157Z,6.80
2019-03-21T06:42:45.474Z,6.90
2019-03-21T06:45:13.717Z,6.87
2019-03-21T06:47:41.933Z,6.47
2019-03-21T06:50:10.210Z,6.67
2019-03-21T06:52:38.446Z,7.80
2019-03-21T06:55:06.693Z,7.73
2019-03-21T06:57:34.908Z,7.00
2019-03-21T07:00:04.721Z,6.57
2019-03-21T07:02:32.937Z,6.33
2019-03-21T07:05:01.203Z,6.40
2019-03-21T07:07:29.409Z,7.10
2019-03-21T07:09:57.660Z,6.23
2019-03-21T07:12:25.901Z,6.43
2019-03-21T07:14:54.510Z,6.00
2019-03-21T07:17:23.064Z,6.23
2019-03-21T07:19:51.529Z,6.80
2019-03-21T07:22:19.774Z,6.53
2019-03-21T07:24:47.992Z,6.20
2019-03-21T07:27:16.240Z,6.00
2019-03-21T07:29:44.460Z,6.70
2019-03-21T07:32:12.740Z,6.80
2019-03-21T07:34:41.269Z,6.10
2019-03-21T07:37:09.614Z,5.93
2019-03-21T07:39:38.153Z,6.00
2019-03-21T07:42:06.730Z,6.47
2019-03-21T07:44:35.274Z,6.17
2019-03-21T07:47:12.318Z,5.83
2019-03-21T07:49:33.715Z,5.83
2019-03-21T07:52:02.281Z,6.17
2019-03-21T07:54:30.851Z,6.47
2019-03-21T07:56:59.093Z,6.50
2019-03-21T07:59:27.334Z,6.10
2019-03-21T08:01:55.670Z,6.50
2019-03-21T08:04:24.210Z,6.23
2019-03-21T08:06:52.781Z,6.20
2019-03-21T08:09:21.321Z,5.97
2019-03-21T08:11:49.924Z,5.77
2019-03-21T08:14:18.164Z,6.40
2019-03-21T08:16:46.729Z,6.20
2019-03-21T08:19:15.277Z,6.33
2019-03-21T08:21:43.849Z,6.60
2019-03-21T08:24:12.391Z,6.07
2019-03-21T08:26:40.965Z,6.17
2019-03-21T08:29:09.509Z,6.00
2019-03-21T08:31:37.753Z,5.60
2019-03-21T08:34:06.305Z,5.83
2019-03-21T08:36:34.881Z,5.60
2019-03-21T08:39:04.985Z,5.23
2019-03-21T08:41:33.581Z,5.57
2019-03-21T08:44:02.223Z,5.53
2019-03-21T08:46:30.887Z,5.83
2019-03-21T08:48:59.088Z,4.83
2019-03-21T08:51:27.631Z,5.47
2019-03-21T08:53:56.196Z,5.47
2019-03-21T08:56:24.767Z,5.00
2019-03-21T08:58:53.329Z,5.00
2019-03-21T09:01:21.570Z,5.23
2019-03-21T09:03:49.808Z,4.93
2019-03-21T09:06:18.378Z,4.73
2019-03-21T09:08:46.974Z,5.10
2019-03-21T09:11:15.177Z,4.83
2019-03-21T09:13:43.778Z,4.70
2019-03-21T09:16:12.317Z,5.00
2019-03-21T09:18:40.886Z,4.73
2019-03-21T09:21:19.240Z,4.80
2019-03-21T09:23:39.653Z,4.80
2019-03-21T09:26:08.268Z,4.33
2019-03-21T09:28:36.907Z,4.53
2019-03-21T09:31:05.081Z,4.70
2019-03-21T09:33:33.652Z,4.40
2019-03-21T09:36:02.197Z,4.50
2019-03-21T09:38:30.766Z,4.57
2019-03-21T09:40:59.377Z,3.90
2019-03-21T09:43:27.955Z,4.20
2019-03-21T09:45:56.492Z,4.30
2019-03-21T09:48:25.133Z,5.00
2019-03-21T09:50:53.665Z,4.03
2019-03-21T09:53:22.338Z,4.30
2019-03-21T09:55:50.873Z,4.13
2019-03-21T09:58:19.488Z,4.37
2019-03-21T10:00:48.081Z,4.43
2019-03-21T10:03:17.529Z,4.10
2019-03-21T10:05:45.746Z,4.37
2019-03-21T10:08:14.385Z,4.03
2019-03-21T10:10:43.006Z,3.80
2019-03-21T10:13:11.578Z,3.97
2019-03-21T10:15:40.149Z,3.87
2019-03-21T10:18:08.717Z,3.73
2019-03-21T10:20:37.314Z,4.13
2019-03-21T10:23:06.035Z,4.17
2019-03-21T10:25:34.638Z,3.80
2019-03-21T10:28:05.396Z,3.77
2019-03-21T10:30:39.973Z,4.40
2019-03-21T10:33:10.958Z,3.97
2019-03-21T10:35:39.593Z,3.90
2019-03-21T10:38:08.309Z,4.50
2019-03-21T10:40:37.049Z,4.70
2019-03-21T10:43:06.238Z,4.83
2019-03-21T10:45:34.951Z,4.60
2019-03-21T10:48:03.729Z,4.27
2019-03-21T10:50:37.719Z,4.37
2019-03-21T10:53:07.029Z,4.20
2019-03-21T10:55:35.697Z,5.10
2019-03-21T10:58:05.273Z,4.70
2019-03-21T11:00:33.598Z,5.13
2019-03-21T11:03:02.217Z,4.17
2019-03-21T11:05:30.822Z,4.43
2019-03-21T11:07:59.366Z,4.20
2019-03-21T11:10:27.951Z,4.17
2019-03-21T11:12:56.186Z,4.03
2019-03-21T11:15:24.757Z,4.77
2019-03-21T11:17:54.848Z,4.80
2019-03-21T11:20:34.189Z,4.93
2019-03-21T11:23:02.995Z,4.40
2019-03-21T11:25:31.633Z,4.13
2019-03-21T11:28:00.205Z,4.57
2019-03-21T11:30:34.685Z,4.37
2019-03-21T11:33:03.868Z,4.03
2019-03-21T11:35:32.882Z,3.80
2019-03-21T11:38:01.569Z,4.10
2019-03-21T11:40:29.886Z,3.90
2019-03-21T11:42:58.573Z,3.83
2019-03-21T11:45:27.497Z,3.93
2019-03-21T11:47:56.120Z,3.90
2019-03-21T11:50:24.676Z,3.93
2019-03-21T11:52:53.226Z,3.70
2019-03-21T11:55:21.536Z,3.47
2019-03-21T11:57:49.801Z,3.90
2019-03-21T12:00:18.783Z,3.93
2019-03-21T12:02:47.362Z,4.27
2019-03-21T12:05:15.962Z,3.40
2019-03-21T12:07:44.534Z,3.87
2019-03-21T12:10:13.944Z,3.80
2019-03-21T12:12:42.497Z,3.60
2019-03-21T12:15:11.712Z,3.73
2019-03-21T12:17:39.953Z,3.60
2019-03-21T12:20:11.232Z,3.23
2019-03-21T12:22:39.840Z,3.40
2019-03-21T12:25:09.058Z,3.20
2019-03-21T12:27:37.596Z,3.73
2019-03-21T12:30:12.134Z,3.17
2019-03-21T12:32:40.681Z,3.70
2019-03-21T12:35:09.354Z,3.20
2019-03-21T12:37:37.922Z,3.33
2019-03-21T12:40:08.361Z,3.33
2019-03-21T12:42:36.572Z,3.27
2019-03-21T12:45:07.957Z,3.73
2019-03-21T12:47:36.601Z,3.50
2019-03-21T12:50:07.493Z,3.10
2019-03-21T12:55:08.052Z,3.50
2019-03-21T12:57:36.624Z,3.23
2019-03-21T13:00:10.300Z,3.77
2019-03-21T13:02:38.897Z,3.43
2019-03-21T13:05:08.777Z,2.97
2019-03-21T13:07:37.493Z,4.17
2019-03-21T13:10:07.181Z,3.60
2019-03-21T13:12:35.820Z,3.60
2019-03-21T13:15:05.914Z,3.63
2019-03-21T13:17:34.490Z,3.60
2019-03-21T13:20:04.276Z,3.40
2019-03-21T13:22:32.852Z,3.60
2019-03-21T13:25:01.427Z,3.17
2019-03-21T13:27:30.007Z,3.23
2019-03-21T13:29:58.573Z,3.30
2019-03-21T13:32:26.814Z,3.10
2019-03-21T13:34:55.391Z,3.40
2019-03-21T13:37:23.930Z,3.50
2019-03-21T13:39:52.509Z,3.77
2019-03-21T13:42:21.081Z,3.87
2019-03-21T13:44:49.649Z,3.80
2019-03-21T13:47:18.192Z,3.67
2019-03-21T13:49:46.768Z,3.70
2019-03-21T13:52:15.313Z,3.40
2019-03-21T13:54:43.576Z,3.07
2019-03-21T13:57:12.132Z,3.27
2019-03-21T13:59:40.698Z,3.40
2019-03-21T14:02:09.266Z,3.37
2019-03-21T14:04:37.533Z,3.63
2019-03-21T14:07:06.073Z,3.53
2019-03-21T14:09:34.721Z,3.07
2019-03-21T14:12:03.341Z,3.73
2019-03-21T14:14:31.913Z,3.33
2019-03-21T14:17:00.464Z,4.33
2019-03-21T14:19:29.039Z,3.47
2019-03-21T14:21:57.585Z,3.40
2019-03-21T14:24:26.257Z,3.30
2019-03-21T14:26:54.804Z,3.60
2019-03-21T14:29:23.407Z,3.07
2019-03-21T14:31:51.972Z,3.70
2019-03-21T14:34:20.522Z,3.37
2019-03-21T14:36:49.097Z,3.40
2019-03-21T14:39:17.641Z,3.40
2019-03-21T14:41:46.377Z,3.30
2019-03-21T14:44:14.916Z,3.50
2019-03-21T14:46:43.490Z,3.53
2019-03-21T14:49:12.033Z,3.93
2019-03-21T14:51:40.614Z,4.40
2019-03-21T14:54:09.231Z,3.80
2019-03-21T14:56:37.860Z,3.77
2019-03-21T14:59:06.446Z,3.73
2019-03-21T15:01:35.082Z,4.10
2019-03-21T15:04:03.705Z,4.10
2019-03-21T15:06:32.381Z,3.87
2019-03-21T15:09:00.857Z,3.80
2019-03-21T15:11:29.462Z,3.67
2019-03-21T15:13:58.058Z,4.23
2019-03-21T15:16:26.650Z,4.80
2019-03-21T15:18:55.157Z,4.40
2019-03-21T15:21:23.724Z,4.57
2019-03-21T15:23:59.252Z,3.87
2019-03-21T15:26:22.498Z,4.47
2019-03-21T15:28:51.041Z,4.60
2019-03-21T15:31:19.613Z,4.27
2019-03-21T15:33:48.162Z,4.37
2019-03-21T15:36:16.710Z,4.27
2019-03-21T15:38:45.290Z,4.50
2019-03-21T15:41:13.841Z,4.70
2019-03-21T15:43:42.425Z,4.30
2019-03-21T15:46:11.046Z,4.20
2019-03-21T15:48:39.621Z,4.23
2019-03-21T15:51:08.193Z,4.83
2019-03-21T15:53:36.765Z,4.67
2019-03-21T15:56:04.983Z,4.40
2019-03-21T15:58:33.583Z,4.30
2019-03-21T16:01:02.194Z,4.73
2019-03-21T16:03:30.514Z,4.30
2019-03-21T16:05:59.086Z,5.10
2019-03-21T16:08:27.662Z,4.97
2019-03-21T16:10:56.217Z,4.80
2019-03-21T16:13:24.789Z,4.30
2019-03-21T16:15:53.337Z,4.93
2019-03-21T16:18:21.580Z,4.83
2019-03-21T16:20:50.197Z,4.13
2019-03-21T16:23:18.781Z,4.70
2019-03-21T16:25:48.542Z,4.80
2019-03-21T16:28:20.028Z,4.63
2019-03-21T16:30:47.613Z,4.83
2019-03-21T16:33:16.214Z,5.03
2019-03-21T16:35:44.757Z,5.70
2019-03-21T16:38:13.364Z,5.40
2019-03-21T16:40:41.900Z,4.87
2019-03-21T16:43:10.481Z,5.17
2019-03-21T16:45:39.098Z,4.30
2019-03-21T16:48:09.094Z,4.50
2019-03-21T16:50:38.020Z,4.80
2019-03-21T16:53:06.608Z,4.50
2019-03-21T16:55:35.155Z,4.70
2019-03-21T16:58:03.737Z,4.27
2019-03-21T17:00:32.353Z,4.23
2019-03-21T17:03:00.932Z,4.50
2019-03-21T17:05:29.174Z,4.70
2019-03-21T17:08:10.109Z,4.37
2019-03-21T17:10:30.522Z,4.87
2019-03-21T17:12:58.195Z,4.57
2019-03-21T17:15:26.742Z,4.47
2019-03-21T17:17:55.316Z,5.27
2019-03-21T17:20:23.897Z,5.80
2019-03-21T17:22:52.467Z,6.70
2019-03-21T17:25:21.081Z,7.07
2019-03-21T17:27:49.662Z,6.20
2019-03-21T17:30:18.347Z,7.50
2019-03-21T17:32:46.928Z,7.53
2019-03-21T17:35:15.619Z,6.80
2019-03-21T17:37:44.192Z,7.10
2019-03-21T17:40:14.506Z,7.13
2019-03-21T17:42:43.150Z,9.37
2019-03-21T17:45:16.599Z,9.27
2019-03-21T17:47:45.382Z,7.13
2019-03-21T17:50:16.337Z,5.83
2019-03-21T17:52:44.922Z,7.23
2019-03-21T17:55:13.709Z,5.50
2019-03-21T17:57:42.036Z,5.30
2019-03-21T18:00:16.511Z,5.60
2019-03-21T18:02:45.326Z,4.00
2019-03-21T18:05:14.266Z,4.33
2019-03-21T18:07:42.836Z,5.00
2019-03-21T18:10:25.798Z,9.93
2019-03-21T18:12:54.378Z,8.03
2019-03-21T18:15:22.931Z,5.90
2019-03-21T18:17:51.569Z,5.13
2019-03-21T18:20:19.853Z,6.80
2019-03-21T18:22:48.437Z,6.57
2019-03-21T18:25:16.977Z,5.13
2019-03-21T18:27:45.645Z,4.70
2019-03-21T18:30:14.325Z,5.00
2019-03-21T18:32:42.966Z,7.13
2019-03-21T18:35:11.969Z,6.33
2019-03-21T18:37:40.568Z,5.67
2019-03-21T18:40:11.545Z,5.10
2019-03-21T18:42:40.137Z,4.63
2019-03-21T18:45:12.118Z,4.67
2019-03-21T18:47:40.761Z,5.33
2019-03-21T18:50:14.773Z,5.20
2019-03-21T18:52:43.481Z,5.97
2019-03-21T18:55:12.260Z,5.10
2019-03-21T18:57:40.902Z,5.57
2019-03-21T19:00:15.025Z,5.87
2019-03-21T19:02:43.665Z,5.60
2019-03-21T19:05:12.356Z,5.40
2019-03-21T19:07:40.931Z,5.53
2019-03-21T19:10:11.639Z,6.27
2019-03-21T19:12:40.208Z,6.60
2019-03-21T19:15:14.880Z,7.77
2019-03-21T19:17:43.555Z,8.07
2019-03-21T19:20:19.327Z,8.10
2019-03-21T19:22:48.295Z,8.40
2019-03-21T19:25:19.527Z,9.13
2019-03-21T19:27:48.143Z,11.40
2019-03-21T19:30:21.461Z,15.17
2019-03-21T19:32:50.372Z,9.33
2019-03-21T19:35:18.990Z,10.07
2019-03-21T19:37:47.732Z,7.63
2019-03-21T19:40:17.811Z,7.63
2019-03-21T19:42:46.457Z,7.33
2019-03-21T19:45:16.645Z,7.60
2019-03-21T19:47:45.192Z,8.77
2019-03-21T19:50:21.498Z,7.47
2019-03-21T19:52:50.060Z,6.57
2019-03-21T19:55:30.288Z,5.87
2019-03-21T19:57:48.934Z,5.60
2019-03-21T20:00:20.252Z,6.13
2019-03-21T20:02:49.134Z,6.17
2019-03-21T20:05:17.848Z,6.87
2019-03-21T20:07:46.453Z,5.57
2019-03-21T20:10:17.749Z,5.70
2019-03-21T20:12:46.374Z,5.80
2019-03-21T20:15:16.509Z,6.33
2019-03-21T20:17:45.301Z,6.80
2019-03-21T20:20:16.252Z,5.47
2019-03-21T20:22:44.538Z,4.97
2019-03-21T20:25:13.058Z,5.60
2019-03-21T20:27:41.744Z,6.43
2019-03-21T20:30:15.970Z,7.37
2019-03-21T20:32:44.538Z,6.43
2019-03-21T20:35:12.781Z,6.87
2019-03-21T20:37:41.398Z,7.20
2019-03-21T20:40:15.498Z,6.33
2019-03-21T20:42:44.126Z,5.00
2019-03-21T20:45:17.371Z,5.00
2019-03-21T20:47:45.586Z,4.97
2019-03-21T20:50:14.102Z,5.07
2019-03-21T20:52:42.645Z,6.03
2019-03-21T20:55:11.651Z,5.40
2019-03-21T20:57:40.195Z,5.33
2019-03-21T21:00:11.845Z,6.33
2019-03-21T21:02:40.385Z,5.93
2019-03-21T21:05:09.093Z,5.07
2019-03-21T21:07:37.738Z,5.67
2019-03-21T21:10:07.073Z,5.60
2019-03-21T21:12:35.620Z,6.70
2019-03-21T21:15:06.577Z,7.17
2019-03-21T21:17:35.170Z,6.23
2019-03-21T21:20:06.378Z,5.03
2019-03-21T21:22:34.993Z,4.70
2019-03-21T21:25:04.873Z,5.33
2019-03-21T21:27:33.418Z,5.13
2019-03-21T21:30:01.993Z,5.57
2019-03-21T21:32:30.533Z,5.80
2019-03-21T21:34:59.110Z,5.60
2019-03-21T21:37:27.653Z,6.43
2019-03-21T21:39:56.239Z,6.97
2019-03-21T21:42:24.785Z,6.70
2019-03-21T21:44:53.383Z,6.43
2019-03-21T21:47:21.947Z,6.20
2019-03-21T21:49:50.558Z,6.30
2019-03-21T21:52:19.058Z,6.50
2019-03-21T21:54:49.265Z,6.87
2019-03-21T21:57:17.974Z,6.30
2019-03-21T21:59:46.553Z,5.47
2019-03-21T22:02:15.124Z,5.93
2019-03-21T22:04:43.690Z,6.30
2019-03-21T22:07:12.233Z,6.97
2019-03-21T22:09:40.811Z,6.10
2019-03-21T22:12:09.352Z,6.53
2019-03-21T22:14:37.933Z,5.80
2019-03-21T22:17:06.461Z,5.87
2019-03-21T22:19:35.065Z,6.10
2019-03-21T22:22:03.677Z,6.40
2019-03-21T22:24:32.273Z,5.67
2019-03-21T22:27:00.830Z,5.87
2019-03-21T22:29:29.422Z,5.47
2019-03-21T22:31:57.661Z,6.13
2019-03-21T22:34:26.233Z,5.90
2019-03-21T22:36:54.850Z,6.03
2019-03-21T22:39:23.448Z,5.87
2019-03-21T22:41:51.985Z,6.03
2019-03-21T22:44:20.632Z,7.93
2019-03-21T22:46:49.106Z,7.53
2019-03-21T22:49:17.352Z,7.10
2019-03-21T22:51:45.898Z,6.03
2019-03-21T22:54:14.465Z,5.47
2019-03-21T22:56:43.033Z,5.80
2019-03-21T22:59:11.601Z,5.37
2019-03-21T23:01:40.282Z,5.40
2019-03-21T23:04:08.880Z,6.07
2019-03-21T23:06:37.417Z,5.67
2019-03-21T23:09:07.696Z,5.93
2019-03-21T23:11:36.240Z,6.10
2019-03-21T23:14:04.978Z,6.10
2019-03-21T23:16:33.521Z,5.23
2019-03-21T23:19:02.101Z,5.70
2019-03-21T23:21:30.341Z,6.13
2019-03-21T23:23:58.557Z,5.60
2019-03-21T23:26:27.138Z,5.77
2019-03-21T23:28:55.677Z,5.33
2019-03-21T23:31:24.316Z,5.70
2019-03-21T23:33:52.870Z,5.77
2019-03-21T23:36:21.109Z,4.87
2019-03-21T23:38:49.334Z,5.17
2019-03-21T23:41:17.905Z,5.60
2019-03-21T23:43:46.526Z,6.20
2019-03-21T23:46:15.101Z,6.13
2019-03-21T23:48:43.645Z,5.60
2019-03-21T23:51:12.220Z,5.93
2019-03-21T23:53:40.766Z,5.67
2019-03-21T23:56:09.358Z,5.10
2019-03-21T23:58:37.901Z,6.13
